Norway, SC

9:19 PM EDT on October 20, 2014 (GMT -0400)
Columbia Metro | Change Station
CLOSE
Current Station
Airport
Location: Columbia,
Elevation: 223 ft
Nearby Weather Stations

Elev 223 ft 33.94 °N, 81.12 °W | Updated 23 minutes ago

Partly Cloudy
Partly Cloudy
60 °F
Feels Like 60 °F
N
0
Wind Variable Wind from North

Today
High -- | Low -- °F
--% Chance of Precip.
Yesterday
High -- | Low -- °F
Precip. -- in
7:33 AM 6:44 PM
Waning Crescent, 8% visible
Pressure 29.99 in
Visibility 10.0 miles
Clouds Scattered Clouds 20000 ft
Dew Point 53 °F
Humidity 78%
Rainfall 0.00 in
Snow Depth Not available.
UV 0 out of 12
Pollen 3.10 out of 12
Ozone Good
PM2.5 Good
Flu Activity Sporadic
METAR KCAE 210056Z 00000KT 10SM SCT200 16/12 A2999 RMK AO2 SLP155 T01560117

More Conditions Fewer Conditions

Pressure 29.99 in
Visibility 10.0 miles
Clouds Scattered Clouds 20000 ft
Dew Point 53 °F
Humidity 78%
Rainfall 0.00 in
Snow Depth Not available.
UV 0 out of 12
Pollen 3.10 out of 12
Ozone Good
PM2.5 Good
Flu Activity Sporadic
METAR KCAE 210056Z 00000KT 10SM SCT200 16/12 A2999 RMK AO2 SLP155 T01560117

More Conditions Fewer Conditions

10-Day Weather Forecast

Almanac

Astronomy

Oct. 20, 2014 Rise Set
Actual Time 7:33 AM EDT 6:44 PM EDT
Civil Twilight 7:07 AM EDT 7:10 PM EDT
Nautical Twilight 6:38 AM EDT 7:39 PM EDT
Astronomical Twilight 6:10 AM EDT 8:07 PM EDT
Moon 4:29 AM EDT (10/20) 4:59 PM EDT (10/20)
Length of Visible Light 12h 02m
Length of Day
11h 11m
Tomorrow will be 1m 56s shorter.
Waning Crescent, 8% of the Moon is Illuminated
Today
Waning Crescent
Oct 23
New
Oct 30
First Quarter
Nov 6
Full
Nov 14
Last Quarter

Today's Extremes

State Highs State Lows

Community

WunderPhotos

Upload Photos

1,763,578 photos uploaded!

Nearby

Air Quality

  Air Quality AQ Index Pollutant
Yesterday Good
OZONE
Yesterday Good
PM2.5
Current Good
OZONE
Current Good
PM2.5

Snow Depth

Station Depth Elevation
No new snow has been reported.

Earthquake Activity

City Distance Mag. Time & Date
No recent earthquake activity has been reported nearby.
Minimum magnitude displayed is 2.5.

Coastal Water Temperatures

Place Temperature
No Stations Reporting

Nearby Weather Stations